Opotiki Weather Station Historical Data
Version 3.4b - 01-Dec-2017
Daily Summary for November 09, 2018 Units:  English    Metric   Both
« Previous Day
Next Day »
Daily Weekly Monthly Yearly Custom
  High: Low: Average:
Temperature: 75.6 °F 62.4 °F 66.6 °F
Dew Point: 63.7 °F 59.5 °F 61.2 °F
Humidity: 96% 62% 84%
Wind Speed: 6mph 0mph 2.6mph
Wind Gust: 13mph - -
Wind- - South
Pressure: 30 in 29.9 in -
Precipitation: 0.01 in    
Historical Graphs
 
 
Tabular Data for November 09, 2018
Time Temperature Dew Point Pressure Wind Wind Speed Wind Gust Humidity Rain Rate (Hrly) Rain Day
00:02 63.5 °F 61.2 °F 30 in West 1.6 mph 3.8 mph 92% 0 in 0.0mm
00:10 63.5 °F 61.2 °F 30 in West 0.7 mph 5.4 mph 92% 0 in 0.0mm
00:14 63.5 °F 61.2 °F 30 in West 0.7 mph 5.4 mph 92% 0 in 0.0mm
00:22 63.5 °F 61.5 °F 30 in WSW 0.7 mph 5.4 mph 93% 0 in 0.0mm
00:26 63.5 °F 61.5 °F 30 in Calm   5.4 mph 93% 0 in 0.0mm
00:34 63.5 °F 61.5 °F 30 in WNW 1.6 mph 4.5 mph 93% 0 in 0.0mm
00:38 63.5 °F 61.5 °F 30 in NW 0.7 mph 4.5 mph 93% 0 in 0.0mm
00:42 63.5 °F 61.5 °F 30 in NNW 1.6 mph 5.4 mph 93% 0 in 0.0mm
00:48 63.3 °F 61.3 °F 30 in NW 1.6 mph 5.4 mph 93% 0 in 0.0mm
00:54 63.5 °F 61.5 °F 30 in West 0.7 mph 3.1 mph 93% 0 in 0.0mm
00:58 63.5 °F 61.5 °F 30 in West 1.6 mph 3.1 mph 93% 0 in 0.0mm
01:08 63.5 °F 61.5 °F 30 in WNW 1.6 mph 5.4 mph 93% 0 in 0.0mm
01:20 63.5 °F 61.5 °F 30 in WNW 2.2 mph 6.9 mph 93% 0 in 0.0mm
01:24 63.3 °F 61.3 °F 30 in NW 1.6 mph 6.9 mph 93% 0 in 0.0mm
01:28 63.5 °F 61.5 °F 30 in WNW 0.7 mph 6.9 mph 93% 0 in 0.0mm
01:32 63.5 °F 61.5 °F 30 in WNW 3.1 mph 4.5 mph 93% 0 in 0.0mm
01:40 63.3 °F 61.3 °F 30 in WNW 3.1 mph 5.4 mph 93% 0 in 0.0mm
01:42 63.3 °F 61.3 °F 30 in West 2.2 mph 6 mph 93% 0 in 0.0mm
01:48 63.3 °F 61.3 °F 30 in West 2.2 mph 6 mph 93% 0 in 0.0mm
01:54 63.3 °F 61.3 °F 30 in WNW 1.6 mph 5.4 mph 93% 0 in 0.0mm
01:56 63.3 °F 61.3 °F 30 in NW 1.6 mph 5.4 mph 93% 0 in 0.0mm
02:04 63.3 °F 61.3 °F 30 in WNW 3.1 mph 6.9 mph 93% 0 in 0.0mm
02:08 63.3 °F 61.3 °F 30 in WNW 0.7 mph 6.9 mph 93% 0 in 0.0mm
02:12 63.3 °F 61.3 °F 30 in WNW 2.2 mph 6.9 mph 93% 0 in 0.0mm
02:20 63.3 °F 61.3 °F 30 in WNW 1.6 mph 4.5 mph 93% 0 in 0.0mm
02:24 63.1 °F 61.2 °F 30 in NW 1.6 mph 4.5 mph 93% 0 in 0.0mm
02:28 63.1 °F 61.3 °F 30 in NW 1.6 mph 3.8 mph 94% 0 in 0.0mm
02:34 63.1 °F 61.3 °F 30 in WNW 0.7 mph 3.8 mph 94% 0 in 0.0mm
02:44 63.1 °F 61.3 °F 30 in Calm   4.5 mph 94% 0 in 0.0mm
02:50 63.1 °F 61.3 °F 30 in WSW 3.1 mph 4.5 mph 94% 0 in 0.0mm
02:52 63.1 °F 61.3 °F 30 in NNW 1.6 mph 3.8 mph 94% 0 in 0.0mm
02:58 63 °F 61.5 °F 30 in NNW 0.7 mph 3.8 mph 95% 0 in 0.0mm
03:04 63 °F 61.5 °F 30 in WNW 2.2 mph 4.5 mph 95% 0 in 0.0mm
03:06 63 °F 61.5 °F 30 in NW 2.2 mph 4.5 mph 95% 0 in 0.0mm
03:14 62.8 °F 61.3 °F 30 in WSW 1.6 mph 4.5 mph 95% 0 in 0.0mm
03:20 62.8 °F 61.3 °F 30 in NNW 1.6 mph 3.8 mph 95% 0 in 0.0mm
03:24 62.8 °F 61.3 °F 30 in NW 1.6 mph 6 mph 95% 0 in 0.0mm
03:40 62.8 °F 61.3 °F 30 in NW 0.7 mph 4.5 mph 95% 0 in 0.0mm
03:44 62.8 °F 61.3 °F 30 in NNW 0.7 mph 4.5 mph 95% 0 in 0.0mm
03:54 62.8 °F 61.3 °F 30 in WNW 0.7 mph 5.4 mph 95% 0 in 0.0mm
04:10 62.8 °F 61.3 °F 30 in North 0.7 mph 6.9 mph 95% 0 in 0.0mm
04:14 62.8 °F 61.3 °F 30 in NW 2.2 mph 6 mph 95% 0 in 0.0mm
04:18 62.8 °F 61.3 °F 30 in WNW 2.2 mph 4.5 mph 95% 0 in 0.0mm
04:22 62.8 °F 61.3 °F 30 in NW 2.2 mph 6 mph 95% 0 in 0.0mm
04:26 62.8 °F 61.3 °F 30 in WSW 2.2 mph 6 mph 95% 0 in 0.0mm
04:32 62.8 °F 61.3 °F 30 in WSW 3.1 mph 6 mph 95% 0 in 0.0mm
04:44 62.8 °F 61.3 °F 30 in West 1.6 mph 6.9 mph 95% 0 in 0.0mm
04:54 62.8 °F 61.3 °F 30 in WSW 1.6 mph 7.6 mph 95% 0 in 0.0mm
05:00 62.8 °F 61.3 °F 30 in West 1.6 mph 7.6 mph 95% 0 in 0.0mm
05:10 62.8 °F 61.3 °F 30 in WNW 2.2 mph 8.3 mph 95% 0 in 0.0mm
05:12 62.8 °F 61.3 °F 30 in WNW 1.6 mph 8.3 mph 95% 0 in 0.0mm
05:20 62.8 °F 61.3 °F 30 in NW 2.2 mph 8.3 mph 95% 0 in 0.0mm
05:22 63 °F 61.5 °F 30 in NNW 3.1 mph 6 mph 95% 0 in 0.0mm
05:40 62.8 °F 61.3 °F 30 in West 2.2 mph 6 mph 95% 0 in 0.0mm
05:44 62.8 °F 61.3 °F 30 in WNW 2.2 mph 6 mph 95% 0 in 0.0mm
05:50 62.8 °F 61.3 °F 30 in West 1.6 mph 5.4 mph 95% 0 in 0.0mm
06:00 62.8 °F 61.3 °F 30 in NW 2.2 mph 6.9 mph 95% 0 in 0.0mm
06:04 62.8 °F 61.3 °F 30 in WNW 1.6 mph 6 mph 95% 0 in 0.0mm
06:14 62.6 °F 61.2 °F 30 in WNW 2.2 mph 6.9 mph 95% 0 in 0.0mm
06:22 62.6 °F 61.2 °F 30 in North 3.1 mph 7.6 mph 95% 0 in 0.0mm
06:30 62.6 °F 61.2 °F 30 in West 1.6 mph 7.6 mph 95% 0 in 0.0mm
06:40 62.4 °F 61.3 °F 30 in West 1.6 mph 6 mph 96% 0 in 0.0mm
06:44 62.4 °F 61.3 °F 30 in NW 3.8 mph 5.4 mph 96% 0 in 0.0mm
06:50 62.4 °F 61.3 °F 30 in NW 4.5 mph 6.9 mph 96% 0 in 0.0mm
06:52 62.4 °F 61.3 °F 30 in WNW 1.6 mph 7.6 mph 96% 0 in 0.0mm
06:56 62.4 °F 61.3 °F 30 in West 2.2 mph 7.6 mph 96% 0 in 0.0mm
07:04 62.6 °F 61.2 °F 30 in WSW 2.2 mph 7.6 mph 95% 0 in 0.0mm
07:10 62.6 °F 61.2 °F 30 in NNW 2.2 mph 8.3 mph 95% 0 in 0.0mm
07:14 62.6 °F 61.2 °F 30 in NNW 2.2 mph 8.3 mph 95% 0 in 0.0mm
07:20 62.6 °F 61.2 °F 30 in North 2.2 mph 7.6 mph 95% 0 in 0.0mm
07:24 62.6 °F 61.2 °F 30 in North 3.1 mph 6 mph 95% 0 in 0.0mm
07:30 62.4 °F 61.3 °F 30 in NNW 2.2 mph 9.2 mph 96% 0 in 0.0mm
07:34 62.6 °F 61.2 °F 30 in NW 2.2 mph 9.2 mph 95% 0 in 0.0mm
07:40 62.6 °F 61.2 °F 30 in NNE 3.1 mph 6 mph 95% 0 in 0.0mm
07:42 62.6 °F 61.2 °F 30 in WNW 3.1 mph 6 mph 95% 0 in 0.0mm
07:50 62.6 °F 61.2 °F 30 in NW 2.2 mph 5.4 mph 95% 0 in 0.0mm
07:54 62.6 °F 61.2 °F 30 in NNE 2.2 mph 5.4 mph 95% 0 in 0.0mm
08:00 62.6 °F 61.2 °F 30 in North 2.2 mph 5.4 mph 95% 0 in 0.0mm
08:04 62.6 °F 61.2 °F 30 in NW 1.6 mph 5.4 mph 95% 0 in 0.0mm
08:10 62.8 °F 61.3 °F 30 in NW 2.2 mph 5.4 mph 95% 0 in 0.0mm
08:14 62.8 °F 61.3 °F 30 in NNW 1.6 mph 5.4 mph 95% 0 in 0.0mm
08:16 63 °F 61.5 °F 30 in North 1.6 mph 5.4 mph 95% 0 in 0.0mm
08:24 63.1 °F 61.7 °F 30 in West 0.7 mph 6.9 mph 95% 0 in 0.0mm
08:30 63.3 °F 61.9 °F 30 in WSW 1.6 mph 6.9 mph 95% 0 in 0.0mm
08:34 63.3 °F 61.9 °F 30 in NW 2.2 mph 6 mph 95% 0 in 0.0mm
08:40 63.5 °F 61.9 °F 30 in NW 1.6 mph 6.9 mph 94% 0 in 0.0mm
08:44 63.5 °F 61.9 °F 30 in NW 2.2 mph 6.9 mph 94% 0 in 0.0mm
08:48 63.7 °F 61.9 °F 30 in NW 3.1 mph 6 mph 94% 0 in 0.0mm
08:52 63.9 °F 61.9 °F 30 in WNW 2.2 mph 6.9 mph 93% 0 in 0.0mm
09:00 64.2 °F 62.2 °F 30 in NW 2.2 mph 6.9 mph 93% 0 in 0.0mm
09:02 64.2 °F 62.2 °F 30 in NNW 0.7 mph 6.9 mph 93% 0 in 0.0mm
09:08 64.8 °F 62.8 °F 30 in NNW 1.6 mph 6.9 mph 93% 0 in 0.0mm
09:12 65.1 °F 63.1 °F 30 in NW 6 mph 9.2 mph 93% 0 in 0.0mm
09:20 65.8 °F 63.5 °F 30 in NW 3.8 mph 9.2 mph 92% 0 in 0.3mm
09:24 66.2 °F 63.1 °F 30 in NW 2.2 mph 7.6 mph 90% 0 in 0.3mm
09:28 66.4 °F 63.1 °F 30 in WNW 1.6 mph 7.6 mph 89% 0 in 0.3mm
09:34 66.6 °F 63.1 °F 30 in NNE 3.1 mph 7.6 mph 89% 0 in 0.3mm
09:40 66.4 °F 62.4 °F 30 in North 1.6 mph 8.3 mph 87% 0 in 0.3mm
09:44 66.6 °F 62.6 °F 30 in North 2.2 mph 8.3 mph 87% 0 in 0.3mm
09:50 67.1 °F 62.8 °F 30 in ENE 1.6 mph 6 mph 86% 0 in 0.3mm
09:52 67.3 °F 63 °F 30 in ENE 2.2 mph 6 mph 86% 0 in 0.3mm
09:56 68.2 °F 63.1 °F 30 in NE 3.1 mph 5.4 mph 84% 0 in 0.3mm
10:04 68 °F 62.2 °F 30 in NW 3.1 mph 6 mph 82% 0 in 0.3mm
10:10 68 °F 62.2 °F 30 in WNW 4.5 mph 7.6 mph 82% 0 in 0.3mm
10:18 69.3 °F 63.7 °F 30 in WNW 3.8 mph 7.6 mph 82% 0 in 0.3mm
10:28 70 °F 62.4 °F 30 in NW 3.8 mph 8.3 mph 77% 0 in 0.3mm
10:40 69.1 °F 62.1 °F 30 in NNW 2.2 mph 9.2 mph 78% 0 in 0.3mm
10:48 70.5 °F 62.6 °F 30 in NNW 3.1 mph 9.8 mph 76% 0 in 0.3mm
10:54 70.7 °F 62.1 °F 30 in NNW 3.1 mph 9.8 mph 74% 0 in 0.3mm
11:00 72 °F 63 °F 30 in NNW 3.1 mph 9.2 mph 73% 0 in 0.3mm
11:10 72.1 °F 61.9 °F 30 in WNW 3.1 mph 7.6 mph 70% 0 in 0.3mm
11:14 71.4 °F 61.5 °F 30 in WNW 4.5 mph 9.8 mph 71% 0 in 0.3mm
11:20 70.5 °F 61.2 °F 30 in NNW 3.1 mph 9.8 mph 72% 0 in 0.3mm
11:24 70.5 °F 61.5 °F 30 in NNE 3.8 mph 9.8 mph 73% 0 in 0.3mm
11:28 70.2 °F 61.2 °F 30 in North 3.8 mph 9.8 mph 73% 0 in 0.3mm
11:40 72 °F 61.7 °F 30 in NNW 3.1 mph 7.6 mph 70% 0 in 0.3mm
11:44 71.2 °F 61.3 °F 30 in NW 4.5 mph 8.3 mph 71% 0 in 0.3mm
11:46 70.7 °F 61 °F 30 in NW 2.2 mph 8.3 mph 71% 0 in 0.3mm
11:54 73.2 °F 63.3 °F 30 in North 4.5 mph 8.3 mph 71% 0 in 0.3mm
12:00 72.3 °F 61.2 °F 30 in North 3.1 mph 9.8 mph 68% 0 in 0.3mm
12:10 72.7 °F 62.4 °F 30 in NE 3.1 mph 12.1 mph 70% 0 in 0.3mm
12:12 72.9 °F 62.1 °F 30 in NE 3.1 mph 12.1 mph 69% 0 in 0.3mm
12:20 73.4 °F 61.9 °F 30 in NE 3.1 mph 8.3 mph 67% 0 in 0.3mm
12:22 73.4 °F 61.9 °F 30 in NE 3.8 mph 8.3 mph 67% 0 in 0.3mm
12:30 73.6 °F 62.4 °F 30 in North 3.1 mph 8.3 mph 68% 0 in 0.3mm
12:34 73.4 °F 61 °F 30 in NE 3.8 mph 9.2 mph 65% 0 in 0.3mm
12:50 73.9 °F 61.5 °F 30 in North 3.8 mph 9.8 mph 65% 0 in 0.3mm
12:52 73.6 °F 61.2 °F 30 in NNE 3.1 mph 9.8 mph 65% 0 in 0.3mm
13:00 72.9 °F 61 °F 30 in NNE 2.2 mph 8.3 mph 66% 0 in 0.3mm
13:08 72.5 °F 60.4 °F 30 in NNW 3.1 mph 7.6 mph 66% 0 in 0.3mm
13:14 72.5 °F 61 °F 30 in NE 3.1 mph 8.3 mph 67% 0 in 0.3mm
13:20 73.9 °F 62.2 °F 29.9 in ENE 3.1 mph 8.3 mph 67% 0 in 0.3mm
13:24 74.7 °F 61.7 °F 30 in NNW 3.8 mph 9.2 mph 64% 0 in 0.3mm
13:28 73.4 °F 60.4 °F 30 in ENE 3.8 mph 9.2 mph 64% 0 in 0.3mm
13:40 72.9 °F 61.3 °F 29.9 in NE 3.1 mph 9.2 mph 67% 0 in 0.3mm
13:42 73 °F 61.5 °F 30 in NE 3.8 mph 9.2 mph 67% 0 in 0.3mm
13:54 75.4 °F 62.4 °F 29.9 in NNW 3.1 mph 8.3 mph 64% 0 in 0.3mm
13:58 75.2 °F 61.3 °F 29.9 in NE 3.8 mph 8.3 mph 62% 0 in 0.3mm
14:08 73.9 °F 61 °F 30 in NE 2.2 mph 7.6 mph 64% 0 in 0.3mm
14:20 72.9 °F 60.4 °F 29.9 in NNE 3.1 mph 7.6 mph 65% 0 in 0.3mm
14:24 73 °F 61 °F 29.9 in NNE 3.1 mph 7.6 mph 66% 0 in 0.3mm
14:28 73 °F 60.6 °F 29.9 in NNE 6 mph 8.3 mph 65% 0 in 0.3mm
14:32 72.5 °F 60.1 °F 29.9 in NNE 2.2 mph 8.3 mph 65% 0 in 0.3mm
14:40 72.9 °F 60.4 °F 29.9 in NE 3.1 mph 7.6 mph 65% 0 in 0.3mm
14:44 72.5 °F 60.1 °F 29.9 in NE 2.2 mph 7.6 mph 65% 0 in 0.3mm
14:50 72 °F 60.4 °F 29.9 in North 3.8 mph 8.3 mph 67% 0 in 0.3mm
14:54 71.8 °F 60.3 °F 29.9 in NE 5.4 mph 9.2 mph 67% 0 in 0.3mm
15:00 72 °F 60.1 °F 29.9 in NE 3.8 mph 9.2 mph 66% 0 in 0.3mm
15:04 71.6 °F 60.1 °F 29.9 in NNE 3.8 mph 9.2 mph 67% 0 in 0.3mm
15:08 71.2 °F 60.6 °F 29.9 in North 3.8 mph 7.6 mph 69% 0 in 0.3mm
15:20 72 °F 61.3 °F 29.9 in North 3.1 mph 6 mph 69% 0 in 0.3mm
15:24 73.4 °F 61.9 °F 29.9 in North 3.1 mph 9.2 mph 67% 0 in 0.3mm
15:30 73.4 °F 61 °F 29.9 in North 3.8 mph 9.2 mph 65% 0 in 0.3mm
15:34 73.4 °F 61.3 °F 29.9 in NNW 3.8 mph 8.3 mph 66% 0 in 0.3mm
15:40 75.2 °F 62.2 °F 29.9 in North 4.5 mph 8.3 mph 64% 0 in 0.3mm
15:42 75.6 °F 61.7 °F 29.9 in NNE 3.8 mph 7.6 mph 62% 0 in 0.3mm
15:54 73.9 °F 61 °F 29.9 in NE 3.8 mph 9.8 mph 64% 0 in 0.3mm
16:00 75.4 °F 62.4 °F 29.9 in North 3.1 mph 8.3 mph 64% 0 in 0.3mm
16:08 74.1 °F 60.8 °F 29.9 in North 2.2 mph 13 mph 63% 0 in 0.3mm
16:14 72.1 °F 60.3 °F 29.9 in North 2.2 mph 13 mph 66% 0 in 0.3mm
16:34 72 °F 61.7 °F 29.9 in NNW 3.1 mph 7.6 mph 70% 0 in 0.3mm
16:38 72.1 °F 61 °F 29.9 in NNW 3.1 mph 7.6 mph 68% 0 in 0.3mm
16:42 72.3 °F 61.2 °F 29.9 in NNW 2.2 mph 7.6 mph 68% 0 in 0.3mm
16:48 74.1 °F 62.1 °F 29.9 in NNE 2.2 mph 6.9 mph 66% 0 in 0.3mm
16:54 74.7 °F 61.3 °F 29.9 in North 3.8 mph 7.6 mph 63% 0 in 0.3mm
17:04 74.1 °F 60.8 °F 29.9 in NNE 3.1 mph 9.2 mph 63% 0 in 0.3mm
17:08 74.5 °F 61.2 °F 29.9 in NNE 2.2 mph 9.2 mph 63% 0 in 0.3mm
17:12 74.5 °F 61.2 °F 29.9 in NNE 3.1 mph 9.2 mph 63% 0 in 0.3mm
17:18 73.6 °F 60.3 °F 29.9 in NE 3.1 mph 6 mph 63% 0 in 0.3mm
17:24 71.4 °F 59.5 °F 29.9 in NNE 4.5 mph 7.6 mph 66% 0 in 0.3mm
17:30 70.5 °F 60.3 °F 29.9 in NNE 3.1 mph 7.6 mph 70% 0 in 0.3mm
17:44 70.7 °F 61 °F 29.9 in NNE 3.8 mph 6.9 mph 71% 0 in 0.3mm
17:50 70.3 °F 60.1 °F 29.9 in NE 3.1 mph 6 mph 70% 0 in 0.3mm
17:54 69.6 °F 60.3 °F 29.9 in ENE 1.6 mph 8.3 mph 72% 0 in 0.3mm
18:00 69.4 °F 60.4 °F 29.9 in East 2.2 mph 8.3 mph 73% 0 in 0.3mm
18:04 69.1 °F 60.1 °F 29.9 in NE 3.1 mph 6.9 mph 73% 0 in 0.3mm
18:08 68.7 °F 60.1 °F 29.9 in NE 3.8 mph 6 mph 74% 0 in 0.3mm
18:14 68.2 °F 59.5 °F 29.9 in ENE 2.2 mph 6 mph 74% 0 in 0.3mm
18:32 66.9 °F 60.3 °F 29.9 in NE 2.2 mph 7.6 mph 79% 0 in 0.3mm
18:40 66.6 °F 60.6 °F 29.9 in NE 2.2 mph 8.3 mph 81% 0 in 0.3mm
18:44 66.6 °F 60.6 °F 29.9 in NE 2.2 mph 8.3 mph 81% 0 in 0.3mm
18:50 66.2 °F 60.3 °F 29.9 in NE 1.6 mph 6.9 mph 81% 0 in 0.3mm
18:54 65.8 °F 60.6 °F 29.9 in ENE 1.6 mph 7.6 mph 83% 0 in 0.3mm
19:00 65.7 °F 60.4 °F 29.9 in ENE 2.2 mph 8.3 mph 83% 0 in 0.3mm
19:02 65.5 °F 60.3 °F 29.9 in ENE 3.1 mph 8.3 mph 83% 0 in 0.3mm
19:10 65.1 °F 60.3 °F 29.9 in ENE 2.2 mph 6.9 mph 84% 0 in 0.3mm
19:14 65.1 °F 60.3 °F 29.9 in NE 1.6 mph 6.9 mph 84% 0 in 0.3mm
19:20 65.3 °F 60.4 °F 29.9 in NNE 3.8 mph 6.9 mph 84% 0 in 0.3mm
19:24 65.5 °F 60.4 °F 29.9 in ENE 2.2 mph 6 mph 84% 0 in 0.3mm
19:30 65.3 °F 60.4 °F 29.9 in NE 2.2 mph 6 mph 84% 0 in 0.3mm
19:40 64.9 °F 59.7 °F 29.9 in ENE 1.6 mph 7.6 mph 83% 0 in 0.3mm
19:44 64.9 °F 60.1 °F 29.9 in NE 3.1 mph 7.6 mph 84% 0 in 0.3mm
19:50 64.6 °F 59.7 °F 29.9 in NNE 3.1 mph 5.4 mph 84% 0 in 0.3mm
19:52 64.6 °F 59.7 °F 29.9 in NNE 3.1 mph 5.4 mph 84% 0 in 0.3mm
20:00 64.6 °F 60.1 °F 29.9 in NE 3.1 mph 6 mph 85% 0 in 0.3mm
20:04 64.6 °F 60.1 °F 29.9 in ENE 3.8 mph 6.9 mph 85% 0 in 0.3mm
20:10 64.6 °F 60.3 °F 29.9 in ENE 3.8 mph 6.9 mph 86% 0 in 0.3mm
20:14 64.6 °F 60.3 °F 29.9 in NE 3.8 mph 6.9 mph 86% 0 in 0.3mm
20:20 64.4 °F 60.1 °F 29.9 in ENE 1.6 mph 6 mph 86% 0 in 0.3mm
20:24 64.4 °F 60.4 °F 29.9 in NE 2.2 mph 9.2 mph 87% 0 in 0.3mm
20:30 64.4 °F 60.4 °F 29.9 in NE 2.2 mph 9.2 mph 87% 0 in 0.3mm
20:32 64.4 °F 60.4 °F 29.9 in ENE 3.1 mph 7.6 mph 87% 0 in 0.3mm
20:38 64.4 °F 60.4 °F 29.9 in NNE 1.6 mph 7.6 mph 87% 0 in 0.3mm
20:42 64.4 °F 60.4 °F 29.9 in NE 2.2 mph 7.6 mph 87% 0 in 0.3mm
20:50 64.2 °F 60.3 °F 29.9 in NE 3.1 mph 7.6 mph 87% 0 in 0.3mm
20:54 64.2 °F 60.3 °F 29.9 in NE 1.6 mph 11.4 mph 87% 0 in 0.3mm
21:00 64.2 °F 60.6 °F 29.9 in NNE 3.1 mph 11.4 mph 88% 0 in 0.3mm
21:10 64.4 °F 60.8 °F 29.9 in NNE 3.1 mph 9.2 mph 88% 0 in 0.3mm
21:20 64.2 °F 60.6 °F 29.9 in NE 1.6 mph 7.6 mph 88% 0 in 0.3mm
21:30 64.2 °F 60.6 °F 29.9 in NE 3.8 mph 8.3 mph 88% 0 in 0.3mm
21:34 64.2 °F 60.3 °F 29.9 in NNE 2.2 mph 7.6 mph 87% 0 in 0.3mm
21:44 64.4 °F 60.4 °F 29.9 in North 3.1 mph 9.2 mph 87% 0 in 0.3mm
21:50 64.4 °F 60.4 °F 29.9 in NNE 5.4 mph 8.3 mph 87% 0 in 0.3mm
21:52 64.4 °F 60.4 °F 29.9 in NNE 3.1 mph 8.3 mph 87% 0 in 0.3mm
21:56 64.4 °F 60.4 °F 29.9 in NNE 6 mph 8.3 mph 87% 0 in 0.3mm
22:02 64.4 °F 60.4 °F 29.9 in NNE 3.8 mph 7.6 mph 87% 0 in 0.3mm
22:10 64.4 °F 60.4 °F 29.9 in NNE 5.4 mph 9.8 mph 87% 0 in 0.3mm
22:14 64.4 °F 60.4 °F 29.9 in NE 3.1 mph 9.8 mph 87% 0 in 0.3mm
22:20 64.4 °F 60.4 °F 29.9 in NE 3.1 mph 9.8 mph 87% 0 in 0.3mm
22:24 64.4 °F 60.4 °F 29.9 in NNE 2.2 mph 6 mph 87% 0 in 0.3mm
22:28 64.4 °F 60.4 °F 29.9 in NNE 4.5 mph 8.3 mph 87% 0 in 0.3mm
22:32 64.4 °F 60.4 °F 29.9 in North 2.2 mph 8.3 mph 87% 0 in 0.3mm
22:40 64.4 °F 60.4 °F 29.9 in North 3.1 mph 9.2 mph 87% 0 in 0.3mm
22:44 64.4 °F 60.4 °F 29.9 in NNE 2.2 mph 9.2 mph 87% 0 in 0.3mm
22:50 64.4 °F 60.4 °F 29.9 in East 5.4 mph 9.8 mph 87% 0 in 0.3mm
23:02 64.4 °F 60.8 °F 29.9 in North 5.4 mph 8.3 mph 88% 0 in 0.3mm
23:10 64.4 °F 60.8 °F 29.9 in NNE 3.1 mph 9.2 mph 88% 0 in 0.3mm
23:20 64.4 °F 61.2 °F 29.9 in NE 2.2 mph 9.2 mph 89% 0 in 0.3mm
23:22 64.4 °F 61.2 °F 29.9 in NNE 2.2 mph 7.6 mph 89% 0 in 0.3mm
23:30 64.2 °F 61 °F 29.9 in NE 2.2 mph 8.3 mph 89% 0 in 0.3mm
23:34 64 °F 60.8 °F 29.9 in NE 2.2 mph 9.8 mph 89% 0 in 0.3mm
23:40 63.9 °F 60.6 °F 29.9 in NE 3.1 mph 9.8 mph 89% 0 in 0.3mm
23:44 63.9 °F 60.6 °F 29.9 in NE 2.2 mph 7.6 mph 89% 0 in 0.3mm
23:52 63.9 °F 61 °F 29.9 in ENE 2.2 mph 8.3 mph 90% 0 in 0.3mm
23:58 63.9 °F 61 °F 29.9 in ENE 3.1 mph 8.3 mph 90% 0 in 0.3mm
Opotiki Town Weather
Compliments of Weather Underground - 2 mb

NZ Local Weather Forum      Cumulus Top Weather Sites      New Zealand Top40 Weather Station Sites      Flag Counter